sensor_id;sensor_type;location;lat;lon;timestamp;P1;durP1;ratioP1;P2;durP2;ratioP2
8254;SDS011;4167;48.162;11.542;2023-05-10T00:01:35;200.57;;;100.87;;
8254;SDS011;4167;48.162;11.542;2023-05-10T00:04:02;187.20;;;105.33;;
8254;SDS011;4167;48.162;11.542;2023-05-10T00:06:28;227.73;;;117.70;;
8254;SDS011;4167;48.162;11.542;2023-05-10T00:08:55;215.97;;;120.27;;
8254;SDS011;4167;48.162;11.542;2023-05-10T00:11:21;184.50;;;84.30;;
8254;SDS011;4167;48.162;11.542;2023-05-10T00:13:49;162.07;;;70.70;;
8254;SDS011;4167;48.162;11.542;2023-05-10T00:16:16;154.57;;;71.13;;
8254;SDS011;4167;48.162;11.542;2023-05-10T00:18:42;185.47;;;78.20;;
8254;SDS011;4167;48.162;11.542;2023-05-10T00:21:09;163.90;;;74.83;;
8254;SDS011;4167;48.162;11.542;2023-05-10T00:23:35;187.50;;;79.13;;
8254;SDS011;4167;48.162;11.542;2023-05-10T00:26:02;199.57;;;82.30;;
8254;SDS011;4167;48.162;11.542;2023-05-10T00:28:28;254.33;;;107.20;;
8254;SDS011;4167;48.162;11.542;2023-05-10T00:30:56;252.60;;;131.83;;
8254;SDS011;4167;48.162;11.542;2023-05-10T00:33:23;194.03;;;95.03;;
8254;SDS011;4167;48.162;11.542;2023-05-10T00:35:49;268.10;;;130.67;;
8254;SDS011;4167;48.162;11.542;2023-05-10T00:38:16;249.23;;;129.60;;
8254;SDS011;4167;48.162;11.542;2023-05-10T00:40:43;278.60;;;141.20;;
8254;SDS011;4167;48.162;11.542;2023-05-10T00:43:09;275.63;;;114.00;;
8254;SDS011;4167;48.162;11.542;2023-05-10T00:45:36;237.87;;;109.90;;
8254;SDS011;4167;48.162;11.542;2023-05-10T00:48:05;204.73;;;104.63;;
8254;SDS011;4167;48.162;11.542;2023-05-10T00:50:31;192.30;;;97.43;;
8254;SDS011;4167;48.162;11.542;2023-05-10T00:52:59;196.80;;;98.77;;
8254;SDS011;4167;48.162;11.542;2023-05-10T00:55:25;203.70;;;101.77;;
8254;SDS011;4167;48.162;11.542;2023-05-10T00:57:52;206.57;;;102.53;;
8254;SDS011;4167;48.162;11.542;2023-05-10T01:00:19;233.10;;;113.47;;
8254;SDS011;4167;48.162;11.542;2023-05-10T01:02:46;202.10;;;100.03;;
8254;SDS011;4167;48.162;11.542;2023-05-10T01:05:15;196.00;;;102.27;;
8254;SDS011;4167;48.162;11.542;2023-05-10T01:07:42;239.07;;;125.17;;
8254;SDS011;4167;48.162;11.542;2023-05-10T01:10:09;290.40;;;151.30;;
8254;SDS011;4167;48.162;11.542;2023-05-10T01:12:36;332.70;;;161.70;;
8254;SDS011;4167;48.162;11.542;2023-05-10T01:15:05;307.40;;;153.30;;
8254;SDS011;4167;48.162;11.542;2023-05-10T01:17:32;330.10;;;168.50;;
8254;SDS011;4167;48.162;11.542;2023-05-10T01:23:30;250.13;;;125.37;;
8254;SDS011;4167;48.162;11.542;2023-05-10T01:26:07;227.20;;;126.10;;
8254;SDS011;4167;48.162;11.542;2023-05-10T01:29:05;210.53;;;113.30;;
8254;SDS011;4167;48.162;11.542;2023-05-10T01:34:32;211.67;;;89.23;;
8254;SDS011;4167;48.162;11.542;2023-05-10T01:37:02;193.60;;;99.20;;
8254;SDS011;4167;48.162;11.542;2023-05-10T01:39:32;212.20;;;102.80;;
8254;SDS011;4167;48.162;11.542;2023-05-10T01:42:03;200.13;;;103.17;;
8254;SDS011;4167;48.162;11.542;2023-05-10T01:44:34;239.00;;;124.60;;
8254;SDS011;4167;48.162;11.542;2023-05-10T01:47:05;244.37;;;128.17;;
8254;SDS011;4167;48.162;11.542;2023-05-10T01:49:37;238.90;;;125.50;;
8254;SDS011;4167;48.162;11.542;2023-05-10T01:52:07;240.23;;;118.30;;
8254;SDS011;4167;48.162;11.542;2023-05-10T01:54:38;251.53;;;122.63;;
8254;SDS011;4167;48.162;11.542;2023-05-10T01:57:07;228.50;;;124.60;;
8254;SDS011;4167;48.162;11.542;2023-05-10T01:59:37;271.17;;;125.63;;
8254;SDS011;4167;48.162;11.542;2023-05-10T02:02:07;199.90;;;109.73;;
8254;SDS011;4167;48.162;11.542;2023-05-10T02:04:37;241.07;;;120.80;;
8254;SDS011;4167;48.162;11.542;2023-05-10T02:07:05;205.03;;;111.57;;
8254;SDS011;4167;48.162;11.542;2023-05-10T02:09:32;179.80;;;90.10;;
8254;SDS011;4167;48.162;11.542;2023-05-10T02:11:58;197.87;;;99.33;;
8254;SDS011;4167;48.162;11.542;2023-05-10T02:14:27;213.60;;;104.10;;
8254;SDS011;4167;48.162;11.542;2023-05-10T02:16:55;227.93;;;113.20;;
8254;SDS011;4167;48.162;11.542;2023-05-10T02:19:23;232.63;;;115.27;;
8254;SDS011;4167;48.162;11.542;2023-05-10T02:21:51;232.93;;;125.77;;
8254;SDS011;4167;48.162;11.542;2023-05-10T02:24:18;247.23;;;130.37;;
8254;SDS011;4167;48.162;11.542;2023-05-10T02:26:45;268.17;;;136.10;;
8254;SDS011;4167;48.162;11.542;2023-05-10T02:29:13;290.13;;;128.40;;
8254;SDS011;4167;48.162;11.542;2023-05-10T02:31:41;291.03;;;131.67;;
8254;SDS011;4167;48.162;11.542;2023-05-10T02:34:08;241.67;;;110.63;;
8254;SDS011;4167;48.162;11.542;2023-05-10T02:36:38;286.47;;;114.23;;
8254;SDS011;4167;48.162;11.542;2023-05-10T02:39:05;237.63;;;112.53;;
8254;SDS011;4167;48.162;11.542;2023-05-10T02:41:37;247.73;;;119.90;;
8254;SDS011;4167;48.162;11.542;2023-05-10T02:44:06;212.07;;;108.53;;
8254;SDS011;4167;48.162;11.542;2023-05-10T02:46:34;244.80;;;121.33;;
8254;SDS011;4167;48.162;11.542;2023-05-10T02:49:00;216.40;;;118.90;;
8254;SDS011;4167;48.162;11.542;2023-05-10T02:51:28;203.00;;;89.47;;
8254;SDS011;4167;48.162;11.542;2023-05-10T02:54:01;179.93;;;93.50;;
8254;SDS011;4167;48.162;11.542;2023-05-10T02:56:31;210.53;;;105.70;;
8254;SDS011;4167;48.162;11.542;2023-05-10T02:58:59;215.37;;;104.23;;
8254;SDS011;4167;48.162;11.542;2023-05-10T03:01:25;226.23;;;104.43;;
8254;SDS011;4167;48.162;11.542;2023-05-10T03:03:52;208.73;;;97.00;;
8254;SDS011;4167;48.162;11.542;2023-05-10T03:06:19;230.27;;;104.47;;
8254;SDS011;4167;48.162;11.542;2023-05-10T03:08:45;231.70;;;109.87;;
8254;SDS011;4167;48.162;11.542;2023-05-10T03:11:21;248.63;;;122.13;;
8254;SDS011;4167;48.162;11.542;2023-05-10T03:13:54;198.40;;;95.70;;
8254;SDS011;4167;48.162;11.542;2023-05-10T03:16:24;202.87;;;95.67;;
8254;SDS011;4167;48.162;11.542;2023-05-10T03:18:54;217.97;;;96.50;;
8254;SDS011;4167;48.162;11.542;2023-05-10T03:21:25;239.03;;;101.47;;
8254;SDS011;4167;48.162;11.542;2023-05-10T03:23:57;183.83;;;94.97;;
8254;SDS011;4167;48.162;11.542;2023-05-10T03:26:27;203.73;;;96.40;;
8254;SDS011;4167;48.162;11.542;2023-05-10T03:28:55;165.77;;;92.23;;
8254;SDS011;4167;48.162;11.542;2023-05-10T03:31:22;211.90;;;100.43;;
8254;SDS011;4167;48.162;11.542;2023-05-10T03:33:49;217.57;;;96.03;;
8254;SDS011;4167;48.162;11.542;2023-05-10T03:36:16;197.73;;;98.87;;
8254;SDS011;4167;48.162;11.542;2023-05-10T03:38:42;225.27;;;102.47;;
8254;SDS011;4167;48.162;11.542;2023-05-10T03:41:09;184.47;;;98.00;;
8254;SDS011;4167;48.162;11.542;2023-05-10T03:43:37;199.07;;;82.77;;
8254;SDS011;4167;48.162;11.542;2023-05-10T03:46:04;207.03;;;86.80;;
8254;SDS011;4167;48.162;11.542;2023-05-10T03:48:31;213.83;;;92.67;;
8254;SDS011;4167;48.162;11.542;2023-05-10T03:50:58;197.83;;;94.67;;
8254;SDS011;4167;48.162;11.542;2023-05-10T03:53:24;273.67;;;124.67;;
8254;SDS011;4167;48.162;11.542;2023-05-10T03:55:51;254.77;;;117.30;;
8254;SDS011;4167;48.162;11.542;2023-05-10T03:58:18;196.33;;;104.70;;
8254;SDS011;4167;48.162;11.542;2023-05-10T04:00:46;267.73;;;110.07;;
8254;SDS011;4167;48.162;11.542;2023-05-10T04:03:13;205.87;;;97.53;;
8254;SDS011;4167;48.162;11.542;2023-05-10T04:05:40;205.27;;;100.80;;
8254;SDS011;4167;48.162;11.542;2023-05-10T04:08:06;216.80;;;98.07;;
8254;SDS011;4167;48.162;11.542;2023-05-10T04:10:33;179.37;;;90.70;;
8254;SDS011;4167;48.162;11.542;2023-05-10T04:12:59;255.53;;;108.37;;
8254;SDS011;4167;48.162;11.542;2023-05-10T04:15:26;207.77;;;100.80;;
8254;SDS011;4167;48.162;11.542;2023-05-10T04:17:54;210.87;;;109.63;;
8254;SDS011;4167;48.162;11.542;2023-05-10T04:20:20;247.70;;;110.40;;
8254;SDS011;4167;48.162;11.542;2023-05-10T04:22:47;264.10;;;109.83;;
8254;SDS011;4167;48.162;11.542;2023-05-10T04:25:13;196.80;;;90.67;;
8254;SDS011;4167;48.162;11.542;2023-05-10T04:27:39;200.70;;;96.23;;
8254;SDS011;4167;48.162;11.542;2023-05-10T04:30:07;234.97;;;108.33;;
8254;SDS011;4167;48.162;11.542;2023-05-10T04:32:34;251.53;;;109.13;;
8254;SDS011;4167;48.162;11.542;2023-05-10T04:35:02;186.50;;;97.03;;
8254;SDS011;4167;48.162;11.542;2023-05-10T04:37:29;194.70;;;101.80;;
8254;SDS011;4167;48.162;11.542;2023-05-10T04:39:56;232.17;;;122.00;;
8254;SDS011;4167;48.162;11.542;2023-05-10T04:42:24;226.70;;;112.87;;
8254;SDS011;4167;48.162;11.542;2023-05-10T04:44:51;240.67;;;107.67;;
8254;SDS011;4167;48.162;11.542;2023-05-10T04:47:17;198.70;;;98.57;;
8254;SDS011;4167;48.162;11.542;2023-05-10T04:49:44;218.57;;;102.47;;
8254;SDS011;4167;48.162;11.542;2023-05-10T04:52:12;193.37;;;105.23;;
8254;SDS011;4167;48.162;11.542;2023-05-10T04:54:40;229.20;;;109.97;;
8254;SDS011;4167;48.162;11.542;2023-05-10T04:57:06;228.67;;;94.20;;
8254;SDS011;4167;48.162;11.542;2023-05-10T04:59:35;227.47;;;101.97;;
8254;SDS011;4167;48.162;11.542;2023-05-10T05:02:01;229.20;;;106.23;;
8254;SDS011;4167;48.162;11.542;2023-05-10T05:04:29;200.83;;;100.47;;
8254;SDS011;4167;48.162;11.542;2023-05-10T05:06:56;207.77;;;99.27;;
8254;SDS011;4167;48.162;11.542;2023-05-10T05:09:24;206.67;;;98.93;;
8254;SDS011;4167;48.162;11.542;2023-05-10T05:11:52;225.43;;;106.50;;
8254;SDS011;4167;48.162;11.542;2023-05-10T05:14:19;253.60;;;109.33;;
8254;SDS011;4167;48.162;11.542;2023-05-10T05:16:47;275.43;;;130.13;;
8254;SDS011;4167;48.162;11.542;2023-05-10T05:19:13;226.17;;;115.23;;
8254;SDS011;4167;48.162;11.542;2023-05-10T05:21:40;275.23;;;111.03;;
8254;SDS011;4167;48.162;11.542;2023-05-10T05:24:07;206.90;;;94.83;;
8254;SDS011;4167;48.162;11.542;2023-05-10T05:26:36;196.23;;;86.53;;
8254;SDS011;4167;48.162;11.542;2023-05-10T05:29:03;194.67;;;81.60;;
8254;SDS011;4167;48.162;11.542;2023-05-10T05:31:30;238.50;;;86.73;;
8254;SDS011;4167;48.162;11.542;2023-05-10T05:34:04;288.90;;;95.83;;
8254;SDS011;4167;48.162;11.542;2023-05-10T05:36:35;205.13;;;86.80;;
8254;SDS011;4167;48.162;11.542;2023-05-10T05:39:04;207.80;;;88.77;;
8254;SDS011;4167;48.162;11.542;2023-05-10T05:41:32;232.23;;;86.03;;
8254;SDS011;4167;48.162;11.542;2023-05-10T05:44:07;176.37;;;85.00;;
8254;SDS011;4167;48.162;11.542;2023-05-10T05:46:34;236.50;;;90.87;;
8254;SDS011;4167;48.162;11.542;2023-05-10T05:49:08;228.77;;;88.67;;
8254;SDS011;4167;48.162;11.542;2023-05-10T05:51:38;272.57;;;104.10;;
8254;SDS011;4167;48.162;11.542;2023-05-10T05:54:05;257.70;;;106.27;;
8254;SDS011;4167;48.162;11.542;2023-05-10T05:56:31;251.97;;;103.17;;
8254;SDS011;4167;48.162;11.542;2023-05-10T05:58:58;245.90;;;110.50;;
8254;SDS011;4167;48.162;11.542;2023-05-10T06:01:28;359.57;;;113.60;;
8254;SDS011;4167;48.162;11.542;2023-05-10T06:03:55;429.03;;;121.53;;
8254;SDS011;4167;48.162;11.542;2023-05-10T06:06:22;329.47;;;108.40;;
8254;SDS011;4167;48.162;11.542;2023-05-10T06:08:48;323.70;;;110.40;;
8254;SDS011;4167;48.162;11.542;2023-05-10T06:11:15;334.53;;;108.53;;
8254;SDS011;4167;48.162;11.542;2023-05-10T06:13:42;324.07;;;109.67;;
8254;SDS011;4167;48.162;11.542;2023-05-10T06:16:09;250.97;;;96.67;;
8254;SDS011;4167;48.162;11.542;2023-05-10T06:18:37;268.47;;;103.93;;
8254;SDS011;4167;48.162;11.542;2023-05-10T06:21:05;342.33;;;117.97;;
8254;SDS011;4167;48.162;11.542;2023-05-10T06:23:34;382.57;;;118.43;;
8254;SDS011;4167;48.162;11.542;2023-05-10T06:26:01;298.77;;;106.87;;
8254;SDS011;4167;48.162;11.542;2023-05-10T06:28:28;459.70;;;134.50;;
8254;SDS011;4167;48.162;11.542;2023-05-10T06:30:56;439.13;;;125.03;;
8254;SDS011;4167;48.162;11.542;2023-05-10T06:33:22;363.93;;;121.17;;
8254;SDS011;4167;48.162;11.542;2023-05-10T06:35:51;339.93;;;113.43;;
8254;SDS011;4167;48.162;11.542;2023-05-10T06:38:18;297.90;;;121.77;;
8254;SDS011;4167;48.162;11.542;2023-05-10T06:40:44;378.03;;;126.07;;
8254;SDS011;4167;48.162;11.542;2023-05-10T06:43:11;270.03;;;107.77;;
8254;SDS011;4167;48.162;11.542;2023-05-10T06:45:37;301.23;;;109.73;;
8254;SDS011;4167;48.162;11.542;2023-05-10T06:48:05;346.10;;;113.27;;
8254;SDS011;4167;48.162;11.542;2023-05-10T06:50:32;301.20;;;97.97;;
8254;SDS011;4167;48.162;11.542;2023-05-10T06:53:01;280.17;;;106.37;;
8254;SDS011;4167;48.162;11.542;2023-05-10T06:55:27;251.43;;;105.47;;
8254;SDS011;4167;48.162;11.542;2023-05-10T06:57:54;285.20;;;110.40;;
8254;SDS011;4167;48.162;11.542;2023-05-10T07:00:21;308.87;;;106.23;;
8254;SDS011;4167;48.162;11.542;2023-05-10T07:02:47;272.07;;;110.50;;
8254;SDS011;4167;48.162;11.542;2023-05-10T07:05:14;256.10;;;107.47;;
8254;SDS011;4167;48.162;11.542;2023-05-10T07:07:41;291.03;;;109.30;;
8254;SDS011;4167;48.162;11.542;2023-05-10T07:10:10;264.33;;;105.90;;
8254;SDS011;4167;48.162;11.542;2023-05-10T07:12:37;302.80;;;111.37;;
8254;SDS011;4167;48.162;11.542;2023-05-10T07:15:04;230.83;;;99.57;;
8254;SDS011;4167;48.162;11.542;2023-05-10T07:17:31;257.37;;;104.13;;
8254;SDS011;4167;48.162;11.542;2023-05-10T07:19:58;300.57;;;103.23;;
8254;SDS011;4167;48.162;11.542;2023-05-10T07:22:25;254.90;;;93.60;;
8254;SDS011;4167;48.162;11.542;2023-05-10T07:24:51;504.00;;;113.77;;
8254;SDS011;4167;48.162;11.542;2023-05-10T07:27:20;298.23;;;99.33;;
8254;SDS011;4167;48.162;11.542;2023-05-10T07:29:46;260.47;;;104.40;;
8254;SDS011;4167;48.162;11.542;2023-05-10T07:32:13;333.57;;;108.83;;
8254;SDS011;4167;48.162;11.542;2023-05-10T07:34:40;322.53;;;108.40;;
8254;SDS011;4167;48.162;11.542;2023-05-10T07:37:06;307.13;;;109.80;;
8254;SDS011;4167;48.162;11.542;2023-05-10T07:39:34;315.73;;;103.93;;
8254;SDS011;4167;48.162;11.542;2023-05-10T07:42:00;316.33;;;115.97;;
8254;SDS011;4167;48.162;11.542;2023-05-10T07:44:29;365.03;;;120.43;;
8254;SDS011;4167;48.162;11.542;2023-05-10T07:46:56;273.47;;;108.97;;
8254;SDS011;4167;48.162;11.542;2023-05-10T07:49:22;261.83;;;93.50;;
8254;SDS011;4167;48.162;11.542;2023-05-10T07:51:50;327.00;;;107.47;;
8254;SDS011;4167;48.162;11.542;2023-05-10T07:54:17;288.83;;;94.50;;
8254;SDS011;4167;48.162;11.542;2023-05-10T07:56:44;287.67;;;93.47;;
8254;SDS011;4167;48.162;11.542;2023-05-10T07:59:14;298.60;;;91.80;;
8254;SDS011;4167;48.162;11.542;2023-05-10T08:01:43;346.48;;;95.57;;
8254;SDS011;4167;48.162;11.542;2023-05-10T08:04:10;213.77;;;81.88;;
8254;SDS011;4167;48.162;11.542;2023-05-10T08:06:36;286.35;;;90.30;;
8254;SDS011;4167;48.162;11.542;2023-05-10T08:09:03;280.58;;;89.40;;
8254;SDS011;4167;48.162;11.542;2023-05-10T08:11:29;221.05;;;86.03;;
8254;SDS011;4167;48.162;11.542;2023-05-10T08:13:56;267.17;;;91.90;;
8254;SDS011;4167;48.162;11.542;2023-05-10T08:16:22;262.77;;;88.57;;
8254;SDS011;4167;48.162;11.542;2023-05-10T08:18:51;264.90;;;89.22;;
8254;SDS011;4167;48.162;11.542;2023-05-10T08:21:20;260.88;;;85.22;;
8254;SDS011;4167;48.162;11.542;2023-05-10T08:23:46;260.83;;;84.85;;
8254;SDS011;4167;48.162;11.542;2023-05-10T08:26:13;277.75;;;85.05;;
8254;SDS011;4167;48.162;11.542;2023-05-10T08:28:41;242.65;;;89.22;;
8254;SDS011;4167;48.162;11.542;2023-05-10T08:31:07;210.48;;;81.68;;
8254;SDS011;4167;48.162;11.542;2023-05-10T08:33:34;246.43;;;87.53;;
8254;SDS011;4167;48.162;11.542;2023-05-10T08:36:02;319.63;;;102.80;;
8254;SDS011;4167;48.162;11.542;2023-05-10T08:38:29;400.03;;;104.70;;
8254;SDS011;4167;48.162;11.542;2023-05-10T08:40:56;325.60;;;101.13;;
8254;SDS011;4167;48.162;11.542;2023-05-10T08:43:24;331.53;;;100.80;;
8254;SDS011;4167;48.162;11.542;2023-05-10T08:45:53;333.97;;;112.23;;
8254;SDS011;4167;48.162;11.542;2023-05-10T08:48:20;281.87;;;100.63;;
8254;SDS011;4167;48.162;11.542;2023-05-10T08:50:49;341.23;;;110.67;;
8254;SDS011;4167;48.162;11.542;2023-05-10T08:53:20;275.67;;;99.53;;
8254;SDS011;4167;48.162;11.542;2023-05-10T08:55:47;317.47;;;91.43;;
8254;SDS011;4167;48.162;11.542;2023-05-10T08:58:14;206.83;;;90.67;;
8254;SDS011;4167;48.162;11.542;2023-05-10T09:00:40;302.73;;;108.50;;
8254;SDS011;4167;48.162;11.542;2023-05-10T09:03:07;291.00;;;101.23;;
8254;SDS011;4167;48.162;11.542;2023-05-10T09:05:34;212.93;;;87.07;;
8254;SDS011;4167;48.162;11.542;2023-05-10T09:08:02;290.40;;;108.80;;
8254;SDS011;4167;48.162;11.542;2023-05-10T09:10:30;243.40;;;102.83;;
8254;SDS011;4167;48.162;11.542;2023-05-10T09:12:57;295.87;;;116.87;;
8254;SDS011;4167;48.162;11.542;2023-05-10T09:15:24;297.23;;;102.27;;
8254;SDS011;4167;48.162;11.542;2023-05-10T09:17:51;264.53;;;90.67;;
8254;SDS011;4167;48.162;11.542;2023-05-10T09:20:18;324.67;;;100.00;;
8254;SDS011;4167;48.162;11.542;2023-05-10T09:22:45;230.23;;;82.27;;
8254;SDS011;4167;48.162;11.542;2023-05-10T09:25:13;208.07;;;79.97;;
8254;SDS011;4167;48.162;11.542;2023-05-10T09:27:44;224.33;;;85.03;;
8254;SDS011;4167;48.162;11.542;2023-05-10T09:30:15;292.53;;;92.33;;
8254;SDS011;4167;48.162;11.542;2023-05-10T09:32:43;355.63;;;98.67;;
8254;SDS011;4167;48.162;11.542;2023-05-10T09:35:11;316.23;;;100.33;;
8254;SDS011;4167;48.162;11.542;2023-05-10T09:37:38;333.07;;;97.33;;
8254;SDS011;4167;48.162;11.542;2023-05-10T09:40:07;312.33;;;99.30;;
8254;SDS011;4167;48.162;11.542;2023-05-10T09:42:34;276.60;;;97.57;;
8254;SDS011;4167;48.162;11.542;2023-05-10T09:45:04;344.40;;;104.83;;
8254;SDS011;4167;48.162;11.542;2023-05-10T09:47:31;247.27;;;92.00;;
8254;SDS011;4167;48.162;11.542;2023-05-10T09:49:58;308.47;;;102.57;;
8254;SDS011;4167;48.162;11.542;2023-05-10T09:52:28;403.13;;;116.87;;
8254;SDS011;4167;48.162;11.542;2023-05-10T09:54:55;437.50;;;114.70;;
8254;SDS011;4167;48.162;11.542;2023-05-10T09:57:22;272.03;;;95.33;;
8254;SDS011;4167;48.162;11.542;2023-05-10T09:59:50;323.87;;;97.43;;
8254;SDS011;4167;48.162;11.542;2023-05-10T10:02:20;274.70;;;95.80;;
8254;SDS011;4167;48.162;11.542;2023-05-10T10:04:49;256.47;;;97.07;;
8254;SDS011;4167;48.162;11.542;2023-05-10T10:07:17;323.70;;;99.13;;
8254;SDS011;4167;48.162;11.542;2023-05-10T10:09:48;246.90;;;93.40;;
8254;SDS011;4167;48.162;11.542;2023-05-10T10:12:15;223.30;;;89.27;;
8254;SDS011;4167;48.162;11.542;2023-05-10T10:14:42;305.33;;;103.20;;
8254;SDS011;4167;48.162;11.542;2023-05-10T10:17:09;450.37;;;119.90;;
8254;SDS011;4167;48.162;11.542;2023-05-10T10:19:38;294.97;;;98.07;;
8254;SDS011;4167;48.162;11.542;2023-05-10T10:22:05;340.77;;;106.43;;
8254;SDS011;4167;48.162;11.542;2023-05-10T10:24:32;332.13;;;114.17;;
8254;SDS011;4167;48.162;11.542;2023-05-10T10:27:01;211.20;;;97.80;;
8254;SDS011;4167;48.162;11.542;2023-05-10T10:29:34;210.23;;;98.10;;
8254;SDS011;4167;48.162;11.542;2023-05-10T10:32:07;334.77;;;112.07;;
8254;SDS011;4167;48.162;11.542;2023-05-10T10:34:39;299.30;;;113.83;;
8254;SDS011;4167;48.162;11.542;2023-05-10T10:37:06;258.67;;;95.43;;
8254;SDS011;4167;48.162;11.542;2023-05-10T10:39:33;261.30;;;95.47;;
8254;SDS011;4167;48.162;11.542;2023-05-10T10:42:01;278.77;;;105.53;;
8254;SDS011;4167;48.162;11.542;2023-05-10T10:44:38;272.67;;;109.47;;
8254;SDS011;4167;48.162;11.542;2023-05-10T10:47:07;282.50;;;99.50;;
8254;SDS011;4167;48.162;11.542;2023-05-10T10:49:51;198.87;;;94.93;;
8254;SDS011;4167;48.162;11.542;2023-05-10T10:52:23;384.93;;;114.67;;
8254;SDS011;4167;48.162;11.542;2023-05-10T10:54:56;242.90;;;100.63;;
8254;SDS011;4167;48.162;11.542;2023-05-10T10:57:25;274.83;;;112.97;;
8254;SDS011;4167;48.162;11.542;2023-05-10T10:59:58;261.80;;;134.13;;
8254;SDS011;4167;48.162;11.542;2023-05-10T11:02:53;297.40;;;112.13;;
8254;SDS011;4167;48.162;11.542;2023-05-10T11:05:33;265.90;;;113.97;;
8254;SDS011;4167;48.162;11.542;2023-05-10T11:08:07;276.40;;;116.53;;
8254;SDS011;4167;48.162;11.542;2023-05-10T11:10:52;281.23;;;185.33;;
8254;SDS011;4167;48.162;11.542;2023-05-10T11:13:27;317.77;;;185.10;;
8254;SDS011;4167;48.162;11.542;2023-05-10T11:15:55;383.07;;;168.57;;
8254;SDS011;4167;48.162;11.542;2023-05-10T11:18:24;343.47;;;162.30;;
8254;SDS011;4167;48.162;11.542;2023-05-10T11:20:55;330.70;;;158.98;;
8254;SDS011;4167;48.162;11.542;2023-05-10T11:23:23;342.50;;;153.50;;
8254;SDS011;4167;48.162;11.542;2023-05-10T11:25:49;313.73;;;150.70;;
8254;SDS011;4167;48.162;11.542;2023-05-10T11:28:17;311.87;;;139.63;;
8254;SDS011;4167;48.162;11.542;2023-05-10T11:30:44;344.53;;;150.00;;
8254;SDS011;4167;48.162;11.542;2023-05-10T11:33:14;331.73;;;177.10;;
8254;SDS011;4167;48.162;11.542;2023-05-10T11:35:42;346.60;;;187.07;;
8254;SDS011;4167;48.162;11.542;2023-05-10T11:38:10;364.07;;;173.63;;
8254;SDS011;4167;48.162;11.542;2023-05-10T11:40:38;329.93;;;158.13;;
8254;SDS011;4167;48.162;11.542;2023-05-10T11:43:05;284.03;;;176.90;;
8254;SDS011;4167;48.162;11.542;2023-05-10T11:45:32;468.47;;;184.97;;
8254;SDS011;4167;48.162;11.542;2023-05-10T11:47:59;505.67;;;173.17;;
8254;SDS011;4167;48.162;11.542;2023-05-10T11:50:26;247.33;;;142.00;;
8254;SDS011;4167;48.162;11.542;2023-05-10T11:52:52;309.67;;;150.63;;
8254;SDS011;4167;48.162;11.542;2023-05-10T11:55:21;257.17;;;126.27;;
8254;SDS011;4167;48.162;11.542;2023-05-10T11:57:51;277.73;;;127.43;;
8254;SDS011;4167;48.162;11.542;2023-05-10T12:00:18;309.47;;;139.30;;
8254;SDS011;4167;48.162;11.542;2023-05-10T12:02:45;298.60;;;131.87;;
8254;SDS011;4167;48.162;11.542;2023-05-10T12:05:11;325.67;;;135.87;;
8254;SDS011;4167;48.162;11.542;2023-05-10T12:07:38;355.97;;;152.90;;
8254;SDS011;4167;48.162;11.542;2023-05-10T12:10:05;296.50;;;138.13;;
8254;SDS011;4167;48.162;11.542;2023-05-10T12:12:40;297.37;;;146.03;;
8254;SDS011;4167;48.162;11.542;2023-05-10T12:15:11;360.17;;;167.73;;
8254;SDS011;4167;48.162;11.542;2023-05-10T12:17:38;347.23;;;155.23;;
8254;SDS011;4167;48.162;11.542;2023-05-10T12:20:18;405.47;;;159.87;;
8254;SDS011;4167;48.162;11.542;2023-05-10T12:22:46;416.30;;;162.10;;
8254;SDS011;4167;48.162;11.542;2023-05-10T12:25:15;361.27;;;154.77;;
8254;SDS011;4167;48.162;11.542;2023-05-10T12:27:48;319.13;;;145.53;;
8254;SDS011;4167;48.162;11.542;2023-05-10T12:30:18;364.70;;;166.53;;
8254;SDS011;4167;48.162;11.542;2023-05-10T12:32:46;391.33;;;173.47;;
8254;SDS011;4167;48.162;11.542;2023-05-10T12:35:13;380.63;;;166.60;;
8254;SDS011;4167;48.162;11.542;2023-05-10T12:37:40;338.47;;;158.47;;
8254;SDS011;4167;48.162;11.542;2023-05-10T12:40:07;352.20;;;153.57;;
8254;SDS011;4167;48.162;11.542;2023-05-10T12:42:35;285.20;;;150.20;;
8254;SDS011;4167;48.162;11.542;2023-05-10T12:45:04;328.40;;;145.30;;
8254;SDS011;4167;48.162;11.542;2023-05-10T12:47:32;300.40;;;108.87;;
8254;SDS011;4167;48.162;11.542;2023-05-10T12:49:59;254.97;;;64.07;;
8254;SDS011;4167;48.162;11.542;2023-05-10T12:52:26;236.63;;;65.00;;
8254;SDS011;4167;48.162;11.542;2023-05-10T12:54:53;236.60;;;66.87;;
8254;SDS011;4167;48.162;11.542;2023-05-10T12:57:20;275.43;;;65.43;;
8254;SDS011;4167;48.162;11.542;2023-05-10T12:59:47;274.17;;;65.43;;
8254;SDS011;4167;48.162;11.542;2023-05-10T13:02:15;390.43;;;71.83;;
8254;SDS011;4167;48.162;11.542;2023-05-10T13:04:43;366.63;;;69.73;;
8254;SDS011;4167;48.162;11.542;2023-05-10T13:07:11;255.90;;;65.60;;
8254;SDS011;4167;48.162;11.542;2023-05-10T13:09:37;287.03;;;67.20;;
8254;SDS011;4167;48.162;11.542;2023-05-10T13:12:04;197.97;;;62.93;;
8254;SDS011;4167;48.162;11.542;2023-05-10T13:14:31;394.67;;;71.83;;
8254;SDS011;4167;48.162;11.542;2023-05-10T13:16:57;247.80;;;63.90;;
8254;SDS011;4167;48.162;11.542;2023-05-10T13:19:25;239.33;;;66.00;;
8254;SDS011;4167;48.162;11.542;2023-05-10T13:21:52;248.10;;;65.30;;
8254;SDS011;4167;48.162;11.542;2023-05-10T13:24:18;300.53;;;65.87;;
8254;SDS011;4167;48.162;11.542;2023-05-10T13:26:46;224.13;;;62.30;;
8254;SDS011;4167;48.162;11.542;2023-05-10T13:29:12;209.07;;;65.23;;
8254;SDS011;4167;48.162;11.542;2023-05-10T13:31:40;180.80;;;60.47;;
8254;SDS011;4167;48.162;11.542;2023-05-10T13:34:07;227.23;;;65.97;;
8254;SDS011;4167;48.162;11.542;2023-05-10T13:36:35;203.73;;;62.80;;
8254;SDS011;4167;48.162;11.542;2023-05-10T13:39:02;206.83;;;62.63;;
8254;SDS011;4167;48.162;11.542;2023-05-10T13:41:30;215.67;;;64.83;;
8254;SDS011;4167;48.162;11.542;2023-05-10T13:43:56;249.23;;;66.00;;
8254;SDS011;4167;48.162;11.542;2023-05-10T13:46:23;230.13;;;67.57;;
8254;SDS011;4167;48.162;11.542;2023-05-10T13:48:49;210.10;;;62.90;;
8254;SDS011;4167;48.162;11.542;2023-05-10T13:51:16;250.47;;;65.70;;
8254;SDS011;4167;48.162;11.542;2023-05-10T13:53:44;274.87;;;66.33;;
8254;SDS011;4167;48.162;11.542;2023-05-10T13:56:12;199.17;;;62.30;;
8254;SDS011;4167;48.162;11.542;2023-05-10T13:58:38;242.10;;;64.53;;
8254;SDS011;4167;48.162;11.542;2023-05-10T14:01:05;181.80;;;61.63;;
8254;SDS011;4167;48.162;11.542;2023-05-10T14:03:31;274.93;;;63.90;;
8254;SDS011;4167;48.162;11.542;2023-05-10T14:05:58;237.17;;;64.50;;
8254;SDS011;4167;48.162;11.542;2023-05-10T14:08:25;304.63;;;67.60;;
8254;SDS011;4167;48.162;11.542;2023-05-10T14:10:54;248.20;;;64.20;;
8254;SDS011;4167;48.162;11.542;2023-05-10T14:13:21;242.40;;;64.10;;
8254;SDS011;4167;48.162;11.542;2023-05-10T14:15:48;282.40;;;65.90;;
8254;SDS011;4167;48.162;11.542;2023-05-10T14:18:15;237.37;;;65.10;;
8254;SDS011;4167;48.162;11.542;2023-05-10T14:20:42;314.53;;;68.80;;
8254;SDS011;4167;48.162;11.542;2023-05-10T14:23:09;235.37;;;64.53;;
8254;SDS011;4167;48.162;11.542;2023-05-10T14:25:36;242.27;;;64.17;;